Time;durP1;ratioP1;P1;durP2;ratioP2;P2;SDS_P1;SDS_P2;PMS_P1;PMS_P2;Temp;Humidity;BMP_temperature;BMP_pressure;BME280_temperature;BME280_humidity;BME280_pressure;Samples;Min_cycle;Max_cycle;Signal;HPM_P1;HPM_P2
2021/04/02 00:01:29;;;;;;;5.00;2.27;;;10.70;99.90;;;;;;4157817;28;20041;-61
2021/04/02 00:03:33;;;;;;;4.27;2.57;;;10.70;99.90;;;;;;4154386;28;20103;-58
2021/04/02 00:05:34;;;;;;;5.07;2.10;;;10.60;99.90;;;;;;4158046;28;20448;-61
2021/04/02 00:07:35;;;;;;;4.47;1.97;;;10.60;99.90;;;;;;4156149;28;20025;-60
2021/04/02 00:09:36;;;;;;;8.03;2.13;;;10.50;99.90;;;;;;4158327;28;20041;-61
2021/04/02 00:11:37;;;;;;;8.20;2.20;;;10.50;99.90;;;;;;4156305;28;20033;-61
2021/04/02 00:13:44;;;;;;;6.73;2.00;;;10.50;99.90;;;;;;4157470;28;20079;-61
2021/04/02 00:15:47;;;;;;;5.53;2.00;;;10.50;99.90;;;;;;4156048;28;20041;-60
2021/04/02 00:17:48;;;;;;;4.67;2.43;;;10.40;99.90;;;;;;4157328;28;20087;-55
2021/04/02 00:19:49;;;;;;;2.67;2.10;;;10.40;99.90;;;;;;4156641;28;20033;-61
2021/04/02 00:21:50;;;;;;;3.17;2.07;;;10.40;99.90;;;;;;4155430;28;20182;-60
2021/04/02 00:23:51;;;;;;;3.37;2.20;;;10.40;99.90;;;;;;4157283;28;20045;-58
2021/04/02 00:25:53;;;;;;;1.97;1.67;;;10.40;99.90;;;;;;4155287;28;20096;-59
2021/04/02 00:27:54;;;;;;;3.47;1.80;;;10.40;99.90;;;;;;4157897;28;20493;-61
2021/04/02 00:29:56;;;;;;;4.50;2.30;;;10.40;99.90;;;;;;4156007;28;20041;-62
2021/04/02 00:31:57;;;;;;;1.83;1.37;;;10.40;99.90;;;;;;4157644;28;20041;-58
2021/04/02 00:34:00;;;;;;;4.23;1.87;;;10.40;99.90;;;;;;4155602;28;20515;-61
2021/04/02 00:36:02;;;;;;;4.53;2.17;;;10.40;99.90;;;;;;4157391;28;20029;-60
2021/04/02 00:38:05;;;;;;;3.50;2.10;;;10.40;99.90;;;;;;4155726;28;20064;-61
2021/04/02 00:40:30;;;;;;;4.47;2.10;;;10.40;99.90;;;;;;4157076;28;20049;-61
2021/04/02 00:42:31;;;;;;;3.33;2.07;;;10.40;99.90;;;;;;4156245;28;20034;-61
2021/04/02 00:44:34;;;;;;;7.03;2.70;;;10.40;99.90;;;;;;4157218;28;20102;-59
2021/04/02 00:46:35;;;;;;;5.80;2.93;;;10.30;99.90;;;;;;4155664;28;20096;-61
2021/04/02 00:48:37;;;;;;;4.30;2.20;;;10.30;99.90;;;;;;4157062;28;20848;-61
2021/04/02 00:50:50;;;;;;;3.80;2.47;;;10.30;99.90;;;;;;4155914;28;20626;-60
2021/04/02 00:52:51;;;;;;;4.27;2.37;;;10.30;99.90;;;;;;4141112;28;20088;-61
2021/04/02 00:54:52;;;;;;;6.37;3.03;;;10.30;99.90;;;;;;4145811;28;20033;-62
2021/04/02 00:56:54;;;;;;;3.30;2.57;;;10.30;99.90;;;;;;4156442;28;20091;-57
2021/04/02 00:58:55;;;;;;;4.53;3.40;;;10.30;99.90;;;;;;4156450;28;20025;-60
2021/04/02 01:00:56;;;;;;;5.03;2.73;;;10.30;99.90;;;;;;4156309;28;20029;-61
2021/04/02 01:02:59;;;;;;;5.57;2.83;;;10.30;99.90;;;;;;4156384;28;20099;-61
2021/04/02 01:05:05;;;;;;;4.20;3.07;;;10.30;99.90;;;;;;4155337;28;20029;-60
2021/04/02 01:07:07;;;;;;;5.87;3.60;;;10.30;99.90;;;;;;4156816;28;20099;-61
2021/04/02 01:09:10;;;;;;;5.57;3.03;;;10.30;99.90;;;;;;4155043;28;20586;-60
2021/04/02 01:11:17;;;;;;;5.93;3.47;;;10.30;99.90;;;;;;4157140;28;20025;-59
2021/04/02 01:13:24;;;;;;;3.83;3.23;;;10.30;99.90;;;;;;4155859;28;20038;-59
2021/04/02 01:15:39;;;;;;;6.00;3.27;;;10.30;99.90;;;;;;4157132;28;20049;-61
2021/04/02 01:17:46;;;;;;;7.17;3.70;;;10.20;99.90;;;;;;4154537;28;20034;-60
2021/04/02 01:19:52;;;;;;;6.00;3.10;;;10.20;99.90;;;;;;4157040;28;20095;-62
2021/04/02 01:22:00;;;;;;;6.53;3.27;;;10.20;99.90;;;;;;4154972;28;20025;-59
2021/04/02 01:24:20;;;;;;;6.30;3.33;;;10.30;99.90;;;;;;4157329;28;20030;-59
2021/04/02 01:26:45;;;;;;;4.60;2.90;;;10.30;99.90;;;;;;4155149;28;20076;-60
2021/04/02 01:28:59;;;;;;;4.03;3.10;;;10.40;99.90;;;;;;4154861;28;20184;-60
2021/04/02 01:31:01;;;;;;;8.00;3.70;;;10.30;99.90;;;;;;4155377;28;20029;-60
2021/04/02 01:33:04;;;;;;;8.17;3.63;;;10.30;99.90;;;;;;4156768;28;20084;-59
2021/04/02 01:35:25;;;;;;;5.23;3.00;;;10.20;99.90;;;;;;4155240;28;20434;-61
2021/04/02 01:37:33;;;;;;;3.77;3.23;;;10.20;99.90;;;;;;4141534;28;20104;-64
2021/04/02 01:39:39;;;;;;;5.47;2.53;;;10.30;99.90;;;;;;4155868;28;20571;-61
2021/04/02 01:41:43;;;;;;;3.33;2.60;;;10.30;99.90;;;;;;4156848;28;20552;-63
2021/04/02 01:43:53;;;;;;;3.87;2.77;;;10.30;99.90;;;;;;4155226;28;20083;-60
2021/04/02 01:45:56;;;;;;;4.45;2.47;;;10.30;99.90;;;;;;4155978;28;20033;-59
2021/04/02 01:48:00;;;;;;;4.07;3.10;;;10.40;99.90;;;;;;4155158;28;20037;-60
2021/04/02 01:50:01;;;;;;;5.83;3.70;;;10.40;99.90;;;;;;4156926;28;20072;-62
2021/04/02 01:52:06;;;;;;;5.33;3.50;;;10.40;99.90;;;;;;4154783;28;20087;-60
2021/04/02 01:54:09;;;;;;;9.43;4.17;;;10.40;99.90;;;;;;4156671;28;20547;-60
2021/04/02 01:56:10;;;;;;;6.13;3.27;;;10.30;99.90;;;;;;4154787;28;20104;-59
2021/04/02 01:58:12;;;;;;;5.93;4.57;;;10.30;99.90;;;;;;4156891;28;20511;-61
2021/04/02 02:00:38;;;;;;;8.57;5.07;;;10.30;99.90;;;;;;4154604;28;20033;-61
2021/04/02 02:02:40;;;;;;;11.03;6.50;;;10.30;99.90;;;;;;4157042;28;20071;-60
2021/04/02 02:04:43;;;;;;;9.03;5.33;;;10.40;99.90;;;;;;4153788;28;20034;-60
2021/04/02 02:06:46;;;;;;;9.13;5.30;;;10.40;99.90;;;;;;4157065;28;20037;-61
2021/04/02 02:08:49;;;;;;;6.03;4.43;;;10.40;99.90;;;;;;4154124;28;20080;-64
2021/04/02 02:11:01;;;;;;;10.23;4.57;;;10.40;99.90;;;;;;4155988;28;20041;-61
2021/04/02 02:13:04;;;;;;;8.77;5.33;;;10.40;99.90;;;;;;4155256;28;20500;-60
2021/04/02 02:15:09;;;;;;;7.97;4.67;;;10.50;99.90;;;;;;4156145;28;20060;-59
2021/04/02 02:17:18;;;;;;;7.87;5.47;;;10.50;99.90;;;;;;4154556;28;20042;-60
2021/04/02 02:19:25;;;;;;;11.93;7.20;;;10.40;99.90;;;;;;4156270;28;20789;-60
2021/04/02 02:21:27;;;;;;;16.67;8.03;;;10.40;99.90;;;;;;4154779;28;20030;-60
2021/04/02 02:23:29;;;;;;;15.10;8.30;;;10.40;99.90;;;;;;4156352;28;20042;-59
2021/04/02 02:25:30;;;;;;;13.27;8.60;;;10.40;99.90;;;;;;4155132;28;20470;-60
2021/04/02 02:27:32;;;;;;;15.00;8.73;;;10.30;99.90;;;;;;4156834;28;20498;-65
2021/04/02 02:29:34;;;;;;;15.07;7.63;;;10.40;99.90;;;;;;4167227;28;20018;-59
2021/04/02 02:31:37;;;;;;;12.20;8.00;;;10.40;99.90;;;;;;4157924;28;20458;-59
2021/04/02 02:33:40;;;;;;;15.23;8.93;;;10.40;99.90;;;;;;4159155;28;20041;-59
2021/04/02 02:35:41;;;;;;;14.87;9.83;;;10.40;99.90;;;;;;4157623;28;20899;-61
2021/04/02 02:37:44;;;;;;;15.10;8.87;;;10.40;99.90;;;;;;4159592;28;20037;-58
2021/04/02 02:39:45;;;;;;;13.33;9.70;;;10.30;99.90;;;;;;4157396;28;20087;-60
2021/04/02 02:41:46;;;;;;;17.47;10.47;;;10.30;99.90;;;;;;4159859;28;20351;-60
2021/04/02 02:43:48;;;;;;;18.53;10.57;;;10.30;99.90;;;;;;4158144;28;20059;-59
2021/04/02 02:45:49;;;;;;;16.00;11.43;;;10.30;99.90;;;;;;4158050;28;20145;-60
2021/04/02 02:47:51;;;;;;;16.00;11.63;;;10.30;99.90;;;;;;4156529;28;20049;-61
2021/04/02 02:49:52;;;;;;;16.53;10.80;;;10.30;99.90;;;;;;4159115;28;20029;-61
2021/04/02 02:51:55;;;;;;;18.57;11.23;;;10.30;99.90;;;;;;4157379;28;20103;-61
2021/04/02 02:54:03;;;;;;;17.83;9.77;;;10.30;99.90;;;;;;4159231;28;20083;-65
2021/04/02 02:56:06;;;;;;;20.63;9.37;;;10.40;99.90;;;;;;4157317;28;20030;-60
2021/04/02 02:58:09;;;;;;;19.03;9.57;;;10.30;99.90;;;;;;4158069;28;20029;-58
2021/04/02 03:00:14;;;;;;;17.90;9.47;;;10.30;99.90;;;;;;4157410;28;20646;-60
2021/04/02 03:02:17;;;;;;;18.73;11.00;;;10.30;99.90;;;;;;4158510;28;20478;-61
2021/04/02 03:04:19;;;;;;;16.30;10.77;;;10.30;99.90;;;;;;4157898;28;20037;-59
2021/04/02 03:06:23;;;;;;;19.07;11.57;;;10.30;99.90;;;;;;4158064;28;20091;-58
2021/04/02 03:08:28;;;;;;;19.27;9.67;;;10.20;99.90;;;;;;4155991;28;20390;-62
2021/04/02 03:10:33;;;;;;;18.33;9.10;;;10.20;99.90;;;;;;4157358;28;20041;-61
2021/04/02 03:12:35;;;;;;;9.60;5.97;;;10.10;99.90;;;;;;4158245;28;20502;-61
2021/04/02 03:14:38;;;;;;;9.77;5.97;;;10.10;99.90;;;;;;4157482;28;20026;-65
2021/04/02 03:16:43;;;;;;;6.53;4.10;;;10.20;99.90;;;;;;4159096;28;20743;-61
2021/04/02 03:18:48;;;;;;;7.87;4.80;;;10.20;99.90;;;;;;4156712;28;20466;-59
2021/04/02 03:20:50;;;;;;;4.73;3.47;;;10.30;99.90;;;;;;4158503;28;20029;-61
2021/04/02 03:22:53;;;;;;;7.53;3.97;;;10.30;99.90;;;;;;4156978;28;20444;-61
2021/04/02 03:24:58;;;;;;;8.20;4.93;;;10.40;99.90;;;;;;4159020;28;20026;-58
2021/04/02 03:27:00;;;;;;;8.17;4.53;;;10.40;99.90;;;;;;4156810;28;20068;-56
2021/04/02 03:29:02;;;;;;;9.20;5.00;;;10.40;99.90;;;;;;4158182;28;20083;-64
2021/04/02 03:31:04;;;;;;;4.43;3.23;;;10.40;99.90;;;;;;4154924;28;20099;-62
2021/04/02 03:33:11;;;;;;;5.93;3.40;;;10.40;99.90;;;;;;4158669;28;20037;-61
2021/04/02 03:35:13;;;;;;;5.80;3.70;;;10.40;99.90;;;;;;4156669;28;20033;-61
2021/04/02 03:37:15;;;;;;;6.20;3.83;;;10.40;99.90;;;;;;4159152;28;20045;-61
2021/04/02 03:39:21;;;;;;;8.63;5.07;;;10.40;99.90;;;;;;4156351;28;20037;-58
2021/04/02 03:41:33;;;;;;;8.50;4.37;;;10.40;99.90;;;;;;4156981;28;20033;-59
2021/04/02 03:43:37;;;;;;;8.43;4.30;;;10.30;99.90;;;;;;4157567;28;20037;-61
2021/04/02 03:45:40;;;;;;;6.73;4.10;;;10.40;99.90;;;;;;4158009;28;20029;-65
2021/04/02 03:47:44;;;;;;;7.70;4.00;;;10.30;99.90;;;;;;4156688;28;20426;-63
2021/04/02 03:49:48;;;;;;;5.47;4.23;;;10.30;99.90;;;;;;4157774;28;20025;-63
2021/04/02 03:51:56;;;;;;;6.73;4.17;;;10.30;99.90;;;;;;4156999;28;20017;-60
2021/04/02 03:54:00;;;;;;;8.10;4.40;;;10.20;99.90;;;;;;4156182;28;20033;-66
2021/04/02 03:56:05;;;;;;;7.33;4.10;;;10.20;99.90;;;;;;4157487;28;20099;-62
2021/04/02 03:58:10;;;;;;;7.47;4.40;;;10.10;99.90;;;;;;4156589;28;20018;-61
2021/04/02 04:00:19;;;;;;;6.40;4.40;;;10.10;99.90;;;;;;4156661;28;20091;-61
2021/04/02 04:02:20;;;;;;;7.00;4.00;;;10.10;99.90;;;;;;4156049;28;20516;-62
2021/04/02 04:04:25;;;;;;;6.17;3.93;;;10.10;99.90;;;;;;4157231;28;20037;-61
2021/04/02 04:06:29;;;;;;;8.53;4.63;;;10.10;99.90;;;;;;4154982;28;20033;-61
2021/04/02 04:08:32;;;;;;;9.43;5.30;;;10.10;99.90;;;;;;4160020;28;20022;-62
2021/04/02 04:10:34;;;;;;;12.50;7.23;;;10.20;99.90;;;;;;4157765;28;20079;-61
2021/04/02 04:12:37;;;;;;;11.57;6.70;;;10.20;99.90;;;;;;4157532;28;20473;-60
2021/04/02 04:14:40;;;;;;;27.87;9.60;;;10.20;99.90;;;;;;4155972;28;20075;-58
2021/04/02 04:16:43;;;;;;;27.57;13.33;;;10.20;99.90;;;;;;4157117;28;20025;-59
2021/04/02 04:18:47;;;;;;;19.23;10.10;;;10.20;99.90;;;;;;4155849;28;20053;-60
2021/04/02 04:20:53;;;;;;;15.37;7.77;;;10.10;99.90;;;;;;4157424;28;20041;-61
2021/04/02 04:22:56;;;;;;;11.23;7.10;;;10.00;99.90;;;;;;4155093;28;20639;-57
2021/04/02 04:24:59;;;;;;;10.60;6.47;;;10.00;99.90;;;;;;4157153;28;20551;-66
2021/04/02 04:27:03;;;;;;;10.57;6.33;;;9.90;99.90;;;;;;4155261;28;20116;-61
2021/04/02 04:29:06;;;;;;;10.27;5.93;;;9.90;99.90;;;;;;4156771;28;20497;-63
2021/04/02 04:31:09;;;;;;;11.10;6.13;;;9.90;99.90;;;;;;4154953;28;20025;-63
2021/04/02 04:33:12;;;;;;;14.30;7.10;;;9.90;99.90;;;;;;4156877;28;20449;-63
2021/04/02 04:35:17;;;;;;;16.40;7.40;;;10.10;99.90;;;;;;4155145;28;20025;-66
2021/04/02 04:37:21;;;;;;;13.83;6.80;;;10.10;99.90;;;;;;4156613;28;20029;-62
2021/04/02 04:39:24;;;;;;;14.03;7.20;;;10.10;99.90;;;;;;4155682;28;20029;-62
2021/04/02 04:41:26;;;;;;;11.17;6.77;;;10.20;99.90;;;;;;4154516;28;20367;-65
2021/04/02 04:43:31;;;;;;;10.67;5.90;;;10.10;99.90;;;;;;4156767;28;20041;-65
2021/04/02 04:45:32;;;;;;;11.77;6.57;;;10.10;99.90;;;;;;4155397;28;20056;-60
2021/04/02 04:47:35;;;;;;;10.20;6.47;;;10.00;99.90;;;;;;4156604;28;20033;-61
2021/04/02 04:49:37;;;;;;;11.50;7.40;;;9.90;99.90;;;;;;4154803;28;20103;-60
2021/04/02 04:51:40;;;;;;;11.63;7.27;;;9.90;99.90;;;;;;4156676;28;20099;-61
2021/04/02 04:53:41;;;;;;;15.43;7.60;;;9.90;99.90;;;;;;4153703;28;20826;-60
2021/04/02 04:55:44;;;;;;;16.10;10.13;;;9.90;99.90;;;;;;4156951;28;20038;-58
2021/04/02 04:57:48;;;;;;;14.60;8.57;;;9.90;99.90;;;;;;4155012;28;20072;-63
2021/04/02 04:59:53;;;;;;;20.47;9.63;;;9.80;99.90;;;;;;4156558;28;20034;-63
2021/04/02 05:01:55;;;;;;;16.60;11.20;;;9.80;99.90;;;;;;4154804;28;20595;-61
2021/04/02 05:03:58;;;;;;;14.27;7.73;;;9.80;99.90;;;;;;4157158;28;20025;-62
2021/04/02 05:06:00;;;;;;;15.77;8.57;;;9.80;99.90;;;;;;4154786;28;20075;-63
2021/04/02 05:08:06;;;;;;;16.50;8.07;;;9.80;99.90;;;;;;4156713;28;20057;-54
2021/04/02 05:10:08;;;;;;;18.27;9.17;;;9.80;99.90;;;;;;4154322;28;20079;-61
2021/04/02 05:12:11;;;;;;;16.83;8.53;;;9.80;99.90;;;;;;4154394;28;20103;-60
2021/04/02 05:14:14;;;;;;;14.80;8.13;;;9.80;99.90;;;;;;4155401;28;20037;-61
2021/04/02 05:16:16;;;;;;;14.67;8.83;;;9.80;99.90;;;;;;4155970;28;20017;-59
2021/04/02 05:18:18;;;;;;;16.83;11.07;;;9.80;99.90;;;;;;4155345;28;20026;-61
2021/04/02 05:20:27;;;;;;;14.97;9.80;;;9.80;99.90;;;;;;4155779;28;20033;-61
2021/04/02 05:22:28;;;;;;;17.70;10.73;;;9.80;99.90;;;;;;4156088;28;20029;-60
2021/04/02 05:24:31;;;;;;;15.17;9.97;;;9.90;99.90;;;;;;4154591;28;20046;-61
2021/04/02 05:26:32;;;;;;;21.50;10.73;;;10.00;99.90;;;;;;4156386;28;20076;-60
2021/04/02 05:28:33;;;;;;;27.53;12.63;;;10.10;99.90;;;;;;4154856;28;20095;-61
2021/04/02 05:30:35;;;;;;;14.93;7.37;;;10.20;99.90;;;;;;4156489;28;20034;-60
2021/04/02 05:32:36;;;;;;;12.63;8.13;;;10.20;99.90;;;;;;4154795;28;20049;-58
2021/04/02 05:34:37;;;;;;;14.50;8.60;;;10.40;99.90;;;;;;4156567;28;20030;-60
2021/04/02 05:36:38;;;;;;;14.87;9.03;;;10.60;99.90;;;;;;4154931;28;20033;-61
2021/04/02 05:38:39;;;;;;;17.70;10.73;;;10.90;99.90;;;;;;4156599;28;20045;-60
2021/04/02 05:40:41;;;;;;;19.03;11.73;;;11.10;99.90;;;;;;4155132;28;20041;-61
2021/04/02 05:42:54;;;;;;;17.17;12.57;;;11.30;99.90;;;;;;4157170;28;20096;-60
2021/04/02 05:44:58;;;;;;;20.70;14.27;;;11.40;99.90;;;;;;4154659;28;20107;-61
2021/04/02 05:47:07;;;;;;;15.07;10.30;;;11.40;99.90;;;;;;4156047;28;20037;-61
2021/04/02 05:49:09;;;;;;;17.23;10.17;;;11.40;99.90;;;;;;4154580;28;20626;-61
2021/04/02 05:51:13;;;;;;;19.40;12.33;;;11.40;99.90;;;;;;4156478;28;20042;-62
2021/04/02 05:53:19;;;;;;;22.03;12.50;;;11.50;99.90;;;;;;4154710;28;20033;-61
2021/04/02 05:55:22;;;;;;;25.27;14.07;;;11.70;99.90;;;;;;4155864;28;20091;-60
2021/04/02 05:57:25;;;;;;;22.00;12.80;;;11.90;99.90;;;;;;4155350;28;20018;-62
2021/04/02 05:59:27;;;;;;;33.97;16.20;;;12.10;99.90;;;;;;4155488;28;20107;-61
2021/04/02 06:01:28;;;;;;;21.73;13.90;;;12.10;99.90;;;;;;4155308;28;20041;-61
2021/04/02 06:03:30;;;;;;;18.47;11.30;;;12.00;99.90;;;;;;4155235;28;20473;-62
2021/04/02 06:05:31;;;;;;;14.83;10.00;;;12.10;99.90;;;;;;4158417;28;20080;-60
2021/04/02 06:07:33;;;;;;;18.03;10.67;;;12.10;99.90;;;;;;4157986;28;20493;-60
2021/04/02 06:09:34;;;;;;;16.67;9.80;;;12.10;99.90;;;;;;4160099;28;20088;-60
2021/04/02 06:11:36;;;;;;;14.17;8.47;;;12.10;99.90;;;;;;4157519;28;20420;-60
2021/04/02 06:13:37;;;;;;;13.83;8.77;;;12.10;99.90;;;;;;4160182;28;20037;-60
2021/04/02 06:15:38;;;;;;;13.73;9.47;;;12.10;99.90;;;;;;4157605;28;20037;-62
2021/04/02 06:18:02;;;;;;;14.77;8.23;;;12.20;99.90;;;;;;4158737;28;20118;-60
2021/04/02 06:20:07;;;;;;;12.33;7.57;;;12.20;99.90;;;;;;4157911;28;20037;-60
2021/04/02 06:22:08;;;;;;;11.83;8.53;;;12.20;99.90;;;;;;4159160;28;20037;-61
2021/04/02 06:24:12;;;;;;;15.23;9.83;;;12.20;99.90;;;;;;4158086;28;20056;-59
2021/04/02 06:26:13;;;;;;;15.87;9.60;;;12.20;99.90;;;;;;4159511;28;20029;-62
2021/04/02 06:28:29;;;;;;;14.33;9.30;;;12.30;99.90;;;;;;4157694;28;20107;-61
2021/04/02 06:30:31;;;;;;;15.20;9.53;;;12.30;99.90;;;;;;4158983;28;20021;-62
2021/04/02 06:32:35;;;;;;;16.17;10.07;;;12.30;99.90;;;;;;4157019;28;20045;-61
2021/04/02 06:34:47;;;;;;;15.67;9.17;;;12.30;99.90;;;;;;4158861;28;20033;-61
2021/04/02 06:36:49;;;;;;;12.23;8.83;;;12.20;99.90;;;;;;4157672;28;20525;-61
2021/04/02 06:38:55;;;;;;;12.97;8.20;;;12.20;99.90;;;;;;4158490;28;20045;-61
2021/04/02 06:41:04;;;;;;;15.10;8.60;;;12.20;99.90;;;;;;4157706;28;20092;-61
2021/04/02 06:43:06;;;;;;;16.27;10.20;;;12.20;99.90;;;;;;4157951;28;20087;-61
2021/04/02 06:45:08;;;;;;;16.03;9.90;;;12.30;99.90;;;;;;4157302;28;20496;-63
2021/04/02 06:47:09;;;;;;;15.33;8.90;;;12.40;99.90;;;;;;4157805;28;20508;-61
2021/04/02 06:49:13;;;;;;;12.33;8.03;;;12.40;99.90;;;;;;4157439;28;20503;-61
2021/04/02 06:51:16;;;;;;;13.07;8.97;;;12.30;99.90;;;;;;4157496;28;20091;-60
2021/04/02 06:53:18;;;;;;;13.87;7.97;;;12.30;99.90;;;;;;4156916;28;20025;-61
2021/04/02 06:55:21;;;;;;;16.97;9.43;;;12.30;99.90;;;;;;4156966;28;20681;-60
2021/04/02 06:57:24;;;;;;;14.43;9.00;;;12.30;99.90;;;;;;4158073;28;20071;-62
2021/04/02 06:59:26;;;;;;;15.53;9.70;;;12.30;99.90;;;;;;4157005;28;20079;-61
2021/04/02 07:01:30;;;;;;;14.87;9.17;;;12.20;99.90;;;;;;4158303;28;20037;-60
2021/04/02 07:03:33;;;;;;;14.77;10.00;;;12.20;99.90;;;;;;4157096;28;20164;-61
2021/04/02 07:05:35;;;;;;;16.40;10.67;;;12.20;99.90;;;;;;4158617;28;20025;-59
2021/04/02 07:07:38;;;;;;;20.87;11.03;;;12.20;99.90;;;;;;4156990;28;20045;-61
2021/04/02 07:09:41;;;;;;;18.40;10.67;;;12.20;99.90;;;;;;4158501;28;20033;-62
2021/04/02 07:11:43;;;;;;;17.80;12.07;;;12.30;99.90;;;;;;4157149;28;20497;-60
2021/04/02 07:13:55;;;;;;;21.10;11.87;;;12.40;99.90;;;;;;4158944;28;20053;-60
2021/04/02 07:15:57;;;;;;;15.53;10.10;;;12.50;99.90;;;;;;4155410;28;20042;-62
2021/04/02 07:18:00;;;;;;;15.50;10.20;;;12.50;99.90;;;;;;4158012;28;20096;-62
2021/04/02 07:20:03;;;;;;;17.20;10.27;;;12.60;99.90;;;;;;4156705;28;20477;-62
2021/04/02 07:22:05;;;;;;;15.07;10.00;;;12.60;99.90;;;;;;4158176;28;21077;-63
2021/04/02 07:24:08;;;;;;;16.40;11.17;;;12.70;99.90;;;;;;4156562;28;20022;-62
2021/04/02 07:26:12;;;;;;;15.17;11.00;;;12.80;99.90;;;;;;4157458;28;20045;-62
2021/04/02 07:28:14;;;;;;;16.40;10.70;;;12.80;99.90;;;;;;4157010;28;20045;-61
2021/04/02 07:30:16;;;;;;;17.70;10.70;;;12.90;99.90;;;;;;4157479;28;20092;-59
2021/04/02 07:32:18;;;;;;;21.73;12.07;;;13.00;99.90;;;;;;4156880;28;20054;-60
2021/04/02 07:34:19;;;;;;;20.93;13.53;;;13.00;99.90;;;;;;4156561;28;20060;-60
2021/04/02 07:36:21;;;;;;;19.80;13.50;;;13.00;99.90;;;;;;4157983;28;20025;-60
2021/04/02 07:38:32;;;;;;;19.90;13.70;;;13.10;99.90;;;;;;4156495;28;20949;-60
2021/04/02 07:40:35;;;;;;;17.37;12.10;;;13.10;99.90;;;;;;4158139;28;20079;-61
2021/04/02 07:42:38;;;;;;;18.60;12.30;;;13.20;99.90;;;;;;4156447;28;20103;-61
2021/04/02 07:44:44;;;;;;;17.77;12.73;;;13.20;99.90;;;;;;4158531;28;20041;-62
2021/04/02 07:47:08;;;;;;;16.90;11.87;;;13.40;99.90;;;;;;4156208;28;20033;-60
2021/04/02 07:49:11;;;;;;;16.80;10.63;;;13.60;99.90;;;;;;4156435;28;20555;-62
2021/04/02 07:51:12;;;;;;;14.53;10.40;;;13.70;99.90;;;;;;4156289;28;20034;-63
2021/04/02 07:53:33;;;;;;;15.60;11.87;;;13.80;99.90;;;;;;4157927;28;20119;-61
2021/04/02 07:55:37;;;;;;;16.10;11.03;;;13.90;99.90;;;;;;4151718;28;20049;-62
2021/04/02 07:58:02;;;;;;;17.37;10.07;;;13.90;99.90;;;;;;4157655;28;20033;-61
2021/04/02 08:00:04;;;;;;;14.97;9.23;;;14.00;99.90;;;;;;4155767;28;20083;-60
2021/04/02 08:02:10;;;;;;;11.50;7.67;;;14.00;99.90;;;;;;4157520;28;20053;-61
2021/04/02 08:04:19;;;;;;;10.37;7.70;;;14.00;99.90;;;;;;4155922;28;20021;-61
2021/04/02 08:06:38;;;;;;;12.43;7.43;;;13.80;99.90;;;;;;4157888;28;20037;-60
2021/04/02 08:08:47;;;;;;;12.87;8.20;;;13.70;99.90;;;;;;4155270;28;20344;-60
2021/04/02 08:11:19;;;;;;;10.63;7.53;;;13.70;99.90;;;;;;4157117;28;20037;-62
2021/04/02 08:13:25;;;;;;;9.63;6.40;;;13.70;99.90;;;;;;4156979;28;20045;-61
2021/04/02 08:15:27;;;;;;;15.47;9.20;;;13.90;99.90;;;;;;4156914;28;20029;-62
2021/04/02 08:17:29;;;;;;;13.30;7.60;;;14.10;99.90;;;;;;4155540;28;20059;-61
2021/04/02 08:19:35;;;;;;;10.13;6.73;;;14.20;99.90;;;;;;4157010;28;20067;-61
2021/04/02 08:21:39;;;;;;;12.43;6.77;;;14.20;99.90;;;;;;4155340;28;20029;-61
2021/04/02 08:23:40;;;;;;;8.27;5.47;;;14.20;99.90;;;;;;4156969;28;20552;-61
2021/04/02 08:25:42;;;;;;;6.13;4.73;;;14.20;99.90;;;;;;4155582;28;20812;-61
2021/04/02 08:27:44;;;;;;;8.93;5.60;;;14.10;99.90;;;;;;4156913;28;20041;-61
2021/04/02 08:29:46;;;;;;;5.73;4.53;;;14.10;99.90;;;;;;4155378;28;20037;-61
2021/04/02 08:31:54;;;;;;;7.33;3.67;;;14.00;99.90;;;;;;4156921;28;20509;-62
2021/04/02 08:33:56;;;;;;;5.60;3.87;;;13.90;99.90;;;;;;4155673;28;20096;-61
2021/04/02 08:35:57;;;;;;;8.33;5.47;;;13.80;99.90;;;;;;4157101;28;20045;-61
2021/04/02 08:38:04;;;;;;;7.83;5.00;;;13.80;99.90;;;;;;4156020;28;20507;-61
2021/04/02 08:40:13;;;;;;;14.27;8.37;;;13.80;99.90;;;;;;4156625;28;20080;-61
2021/04/02 08:42:14;;;;;;;9.63;5.50;;;14.00;99.90;;;;;;4155336;28;20029;-61
2021/04/02 08:44:15;;;;;;;4.20;3.20;;;14.10;99.90;;;;;;4157001;28;20041;-61
2021/04/02 08:46:17;;;;;;;5.03;2.80;;;14.10;99.90;;;;;;4156052;28;20026;-60
2021/04/02 08:48:22;;;;;;;3.53;2.73;;;14.00;99.90;;;;;;4155659;28;20053;-61
2021/04/02 08:50:23;;;;;;;5.87;2.70;;;14.00;99.90;;;;;;4155562;28;20025;-62
2021/04/02 08:52:29;;;;;;;6.63;4.20;;;14.00;99.90;;;;;;4153751;28;20080;-61
2021/04/02 08:54:30;;;;;;;9.87;5.87;;;14.00;99.90;;;;;;4156445;28;20559;-61
2021/04/02 08:56:32;;;;;;;11.30;6.10;;;14.00;99.90;;;;;;4155033;28;20045;-61
2021/04/02 08:58:34;;;;;;;9.07;5.37;;;13.80;99.90;;;;;;4156130;28;20072;-60
2021/04/02 09:00:35;;;;;;;9.63;5.83;;;13.80;99.90;;;;;;4155214;28;20022;-61
2021/04/02 09:02:38;;;;;;;12.07;6.87;;;13.80;99.90;;;;;;4157069;28;20029;-61
2021/04/02 09:04:40;;;;;;;10.07;4.90;;;13.80;99.90;;;;;;4154785;28;20029;-61
2021/04/02 09:06:42;;;;;;;11.87;5.30;;;14.10;99.90;;;;;;4156616;28;20025;-59
2021/04/02 09:08:45;;;;;;;7.47;4.17;;;14.20;99.90;;;;;;4155349;28;20146;-64
2021/04/02 09:10:47;;;;;;;14.73;6.30;;;14.20;99.90;;;;;;4156904;28;20080;-64
2021/04/02 09:12:49;;;;;;;8.40;4.03;;;14.20;99.90;;;;;;4154423;28;20429;-60
2021/04/02 09:14:52;;;;;;;10.03;4.73;;;14.30;99.90;;;;;;4156797;28;20033;-57
2021/04/02 09:16:56;;;;;;;6.17;4.40;;;14.30;99.90;;;;;;4155188;28;20051;-60
2021/04/02 09:18:57;;;;;;;7.23;4.60;;;14.30;99.90;;;;;;4156382;28;20948;-60
2021/04/02 09:21:00;;;;;;;7.50;4.17;;;14.30;99.90;;;;;;4154688;28;20025;-60
2021/04/02 09:23:01;;;;;;;10.63;5.23;;;14.30;99.90;;;;;;4156160;28;20034;-60
2021/04/02 09:25:03;;;;;;;10.37;6.60;;;14.30;99.90;;;;;;4155367;28;20049;-60
2021/04/02 09:27:14;;;;;;;10.70;6.43;;;14.30;99.90;;;;;;4155402;28;20025;-61
2021/04/02 09:29:16;;;;;;;8.13;5.30;;;14.30;99.90;;;;;;4154749;28;20049;-60
2021/04/02 09:31:32;;;;;;;11.90;4.20;;;14.30;99.90;;;;;;4154849;28;20104;-61
2021/04/02 09:33:40;;;;;;;10.53;4.83;;;14.30;99.90;;;;;;4155053;28;20030;-61
2021/04/02 09:35:41;;;;;;;8.80;4.50;;;14.30;99.90;;;;;;4155512;28;20029;-62
2021/04/02 09:37:43;;;;;;;7.07;3.70;;;14.40;99.90;;;;;;4154280;28;20037;-61
2021/04/02 09:39:45;;;;;;;10.87;4.83;;;14.40;99.90;;;;;;4156146;28;20111;-61
2021/04/02 09:41:54;;;;;;;8.73;5.70;;;14.50;99.90;;;;;;4159533;28;20464;-62
2021/04/02 09:43:55;;;;;;;8.43;4.37;;;14.50;99.90;;;;;;4158638;28;20029;-61
2021/04/02 09:45:56;;;;;;;7.27;4.97;;;14.50;99.90;;;;;;4159577;28;20152;-61
2021/04/02 09:47:58;;;;;;;12.57;5.83;;;14.40;99.90;;;;;;4157759;28;20064;-61
2021/04/02 09:50:00;;;;;;;5.57;3.67;;;14.50;99.90;;;;;;4159356;28;20178;-61
2021/04/02 09:52:01;;;;;;;8.97;4.13;;;14.40;99.90;;;;;;4157854;28;20496;-62
2021/04/02 09:54:03;;;;;;;7.50;4.23;;;14.40;99.90;;;;;;4160454;28;20583;-61
2021/04/02 09:56:05;;;;;;;9.07;4.50;;;14.40;99.90;;;;;;4157551;28;20041;-59
2021/04/02 09:58:06;;;;;;;9.10;5.60;;;14.40;99.90;;;;;;4159353;28;20037;-62
2021/04/02 10:00:13;;;;;;;6.70;3.97;;;14.40;99.90;;;;;;4157669;28;20037;-62
2021/04/02 10:02:14;;;;;;;7.60;4.00;;;14.40;99.90;;;;;;4159148;28;20095;-62
2021/04/02 10:04:16;;;;;;;8.97;4.93;;;14.50;99.90;;;;;;4156890;28;20029;-62
2021/04/02 10:06:18;;;;;;;8.70;3.90;;;14.50;99.90;;;;;;4158779;28;20079;-62
2021/04/02 10:08:20;;;;;;;7.30;3.67;;;14.60;99.90;;;;;;4158125;28;20065;-62
2021/04/02 10:10:21;;;;;;;8.47;3.40;;;14.70;99.90;;;;;;4158048;28;20033;-62
2021/04/02 10:12:22;;;;;;;4.50;3.40;;;14.80;99.90;;;;;;4158730;28;20140;-62
2021/04/02 10:14:24;;;;;;;4.70;2.80;;;14.90;99.90;;;;;;4158251;28;20080;-64
2021/04/02 10:16:26;;;;;;;10.70;3.30;;;15.00;99.90;;;;;;4159007;28;20037;-62
2021/04/02 10:18:28;;;;;;;7.13;3.37;;;15.10;99.90;;;;;;4157077;28;20454;-65
2021/04/02 10:20:29;;;;;;;9.37;4.47;;;15.10;99.90;;;;;;4159184;28;20041;-61
2021/04/02 10:22:31;;;;;;;10.07;5.50;;;15.10;99.90;;;;;;4157359;28;20041;-61
2021/04/02 10:24:32;;;;;;;12.80;6.40;;;15.00;99.90;;;;;;4158989;28;20057;-61
2021/04/02 10:26:33;;;;;;;14.27;6.50;;;14.90;99.90;;;;;;4157246;28;20037;-61
2021/04/02 10:28:34;;;;;;;8.90;5.87;;;14.80;99.90;;;;;;4158792;28;20045;-61
2021/04/02 10:30:36;;;;;;;9.03;6.20;;;14.70;99.90;;;;;;4157205;28;20101;-60
2021/04/02 10:32:37;;;;;;;13.77;6.23;;;14.80;99.90;;;;;;4158906;28;20111;-61
2021/04/02 10:34:38;;;;;;;9.80;5.07;;;15.00;99.90;;;;;;4157726;28;20158;-61
2021/04/02 10:36:39;;;;;;;11.80;5.27;;;15.10;99.90;;;;;;4158424;28;20037;-61
2021/04/02 10:38:40;;;;;;;10.20;6.17;;;15.20;99.90;;;;;;4157693;28;20029;-61
2021/04/02 10:40:42;;;;;;;7.50;4.93;;;15.30;99.90;;;;;;4158092;28;20026;-62